createdAt,value
2017-08-22T00:00:16.041Z,3.67
2017-08-22T00:02:42.829Z,3.93
2017-08-22T00:05:09.616Z,3.33
2017-08-22T00:07:36.402Z,3.27
2017-08-22T00:10:03.310Z,3.57
2017-08-22T00:12:30.038Z,3.47
2017-08-22T00:14:56.778Z,3.57
2017-08-22T00:17:23.539Z,3.97
2017-08-22T00:19:50.320Z,3.93
2017-08-22T00:22:17.273Z,3.20
2017-08-22T00:24:44.003Z,3.30
2017-08-22T00:27:10.794Z,3.00
2017-08-22T00:29:37.472Z,2.87
2017-08-22T00:32:04.220Z,3.27
2017-08-22T00:34:31.101Z,2.80
2017-08-22T00:36:57.890Z,3.80
2017-08-22T00:39:24.690Z,2.77
2017-08-22T00:41:51.427Z,2.93
2017-08-22T00:44:18.152Z,2.93
2017-08-22T00:46:45.045Z,2.77
2017-08-22T00:49:11.910Z,2.97
2017-08-22T00:51:38.661Z,2.60
2017-08-22T00:54:05.551Z,3.37
2017-08-22T00:56:32.334Z,2.90
2017-08-22T00:58:59.132Z,2.43
2017-08-22T01:01:25.872Z,3.13
2017-08-22T01:03:52.556Z,3.03
2017-08-22T01:06:19.289Z,3.10
2017-08-22T01:08:46.076Z,3.10
2017-08-22T01:11:12.862Z,2.73
2017-08-22T01:13:39.649Z,2.70
2017-08-22T01:16:07.433Z,2.77
2017-08-22T01:18:34.098Z,2.87
2017-08-22T01:21:00.858Z,2.97
2017-08-22T01:23:27.827Z,2.80
2017-08-22T01:25:54.799Z,2.80
2017-08-22T01:28:21.559Z,3.00
2017-08-22T01:30:48.252Z,2.57
2017-08-22T01:33:14.969Z,3.20
2017-08-22T01:35:41.632Z,2.40
2017-08-22T01:38:08.339Z,2.80
2017-08-22T01:40:35.040Z,2.67
2017-08-22T01:43:01.912Z,2.53
2017-08-22T01:45:28.704Z,2.33
2017-08-22T01:47:55.526Z,3.00
2017-08-22T01:50:22.220Z,2.87
2017-08-22T01:52:48.908Z,2.67
2017-08-22T01:55:15.670Z,2.40
2017-08-22T01:57:42.433Z,3.10
2017-08-22T02:00:09.223Z,2.70
2017-08-22T02:02:36.064Z,2.50
2017-08-22T02:05:02.804Z,2.93
2017-08-22T02:07:29.596Z,2.90
2017-08-22T02:09:56.387Z,2.73
2017-08-22T02:12:23.159Z,2.43
2017-08-22T02:14:49.922Z,2.70
2017-08-22T02:17:16.712Z,2.90
2017-08-22T02:19:43.433Z,3.00
2017-08-22T02:22:10.300Z,3.10
2017-08-22T02:24:37.008Z,3.20
2017-08-22T02:27:03.678Z,2.80
2017-08-22T02:29:30.535Z,2.80
2017-08-22T02:31:57.227Z,2.87
2017-08-22T02:34:24.022Z,2.87
2017-08-22T02:36:50.882Z,2.67
2017-08-22T02:39:17.695Z,2.97
2017-08-22T02:41:44.440Z,2.87
2017-08-22T02:44:11.284Z,3.33
2017-08-22T02:46:38.073Z,3.10
2017-08-22T02:49:04.739Z,3.23
2017-08-22T02:51:31.437Z,3.50
2017-08-22T02:53:58.251Z,2.77
2017-08-22T02:56:25.039Z,3.00
2017-08-22T02:58:51.858Z,3.20
2017-08-22T03:01:18.640Z,3.60
2017-08-22T03:03:45.373Z,3.20
2017-08-22T03:06:12.154Z,2.80
2017-08-22T03:08:39.013Z,3.73
2017-08-22T03:11:05.715Z,3.10
2017-08-22T03:13:32.469Z,3.30
2017-08-22T03:15:59.259Z,3.17
2017-08-22T03:18:26.143Z,2.70
2017-08-22T03:20:52.867Z,3.20
2017-08-22T03:23:19.627Z,2.80
2017-08-22T03:25:46.413Z,2.93
2017-08-22T03:28:13.205Z,3.63
2017-08-22T03:30:39.905Z,3.23
2017-08-22T03:33:06.636Z,3.07
2017-08-22T03:35:33.412Z,3.23
2017-08-22T03:38:00.207Z,2.87
2017-08-22T03:40:26.941Z,3.10
2017-08-22T03:42:53.733Z,3.20
2017-08-22T03:45:20.525Z,3.30
2017-08-22T03:47:47.316Z,3.30
2017-08-22T03:50:14.119Z,3.40
2017-08-22T03:52:41.005Z,3.73
2017-08-22T03:55:07.717Z,3.10
2017-08-22T03:57:34.600Z,3.07
2017-08-22T04:00:01.326Z,3.47
2017-08-22T04:02:28.072Z,3.40
2017-08-22T04:04:54.945Z,3.37
2017-08-22T04:07:21.735Z,3.60
2017-08-22T04:09:48.517Z,3.00
2017-08-22T04:12:15.380Z,3.30
2017-08-22T04:14:42.170Z,3.20
2017-08-22T04:17:08.958Z,3.50
2017-08-22T04:19:35.749Z,3.17
2017-08-22T04:22:02.452Z,3.03
2017-08-22T04:24:29.104Z,3.07
2017-08-22T04:26:55.775Z,3.20
2017-08-22T04:29:22.574Z,3.37
2017-08-22T04:31:49.371Z,3.50
2017-08-22T04:34:16.166Z,3.20
2017-08-22T04:36:42.917Z,3.47
2017-08-22T04:39:09.688Z,3.17
2017-08-22T04:41:36.379Z,3.60
2017-08-22T04:44:03.259Z,3.00
2017-08-22T04:46:30.051Z,3.30
2017-08-22T04:48:56.775Z,3.30
2017-08-22T04:51:23.564Z,3.60
2017-08-22T04:53:50.328Z,3.60
2017-08-22T04:56:17.117Z,3.30
2017-08-22T04:58:43.810Z,3.17
2017-08-22T05:01:10.447Z,3.70
2017-08-22T05:03:37.156Z,3.30
2017-08-22T05:06:03.847Z,3.20
2017-08-22T05:08:30.615Z,3.50
2017-08-22T05:10:57.406Z,3.40
2017-08-22T05:13:24.125Z,3.23
2017-08-22T05:15:50.915Z,3.93
2017-08-22T05:18:17.568Z,3.80
2017-08-22T05:20:44.211Z,4.37
2017-08-22T05:23:10.958Z,4.07
2017-08-22T05:25:37.746Z,4.10
2017-08-22T05:28:04.560Z,3.60
2017-08-22T05:30:31.232Z,4.00
2017-08-22T05:32:57.950Z,4.33
2017-08-22T05:35:24.740Z,4.03
2017-08-22T05:37:51.531Z,3.67
2017-08-22T05:40:18.260Z,4.17
2017-08-22T05:42:45.034Z,3.90
2017-08-22T05:45:11.828Z,3.90
2017-08-22T05:47:38.613Z,4.03
2017-08-22T05:50:05.386Z,3.70
2017-08-22T05:52:32.204Z,3.53
2017-08-22T05:54:58.970Z,3.10
2017-08-22T05:57:25.688Z,4.00
2017-08-22T05:59:52.464Z,2.80
2017-08-22T06:02:19.146Z,3.00
2017-08-22T06:04:45.924Z,3.27
2017-08-22T06:07:12.703Z,3.70
2017-08-22T06:09:39.467Z,2.50
2017-08-22T06:12:06.315Z,2.53
2017-08-22T06:14:33.106Z,3.27
2017-08-22T06:16:59.896Z,2.90
2017-08-22T06:19:26.597Z,2.77
2017-08-22T06:21:53.280Z,3.20
2017-08-22T06:24:19.925Z,3.10
2017-08-22T06:26:47.448Z,3.80
2017-08-22T06:29:14.127Z,3.07
2017-08-22T06:31:40.787Z,3.13
2017-08-22T06:34:07.483Z,3.10
2017-08-22T06:36:34.135Z,3.30
2017-08-22T06:39:00.851Z,2.87
2017-08-22T06:41:27.553Z,3.37
2017-08-22T06:43:54.196Z,2.80
2017-08-22T06:46:20.860Z,3.20
2017-08-22T06:48:47.549Z,3.33
2017-08-22T06:51:14.199Z,3.13
2017-08-22T06:53:40.879Z,3.60
2017-08-22T06:56:07.544Z,3.30
2017-08-22T06:58:34.228Z,3.13
2017-08-22T07:01:00.881Z,3.33
2017-08-22T07:03:27.531Z,2.80
2017-08-22T07:05:54.218Z,3.30
2017-08-22T07:08:20.918Z,3.40
2017-08-22T07:10:47.556Z,3.40
2017-08-22T07:13:14.222Z,2.80
2017-08-22T07:15:40.936Z,3.23
2017-08-22T07:18:07.591Z,3.30
2017-08-22T07:20:34.288Z,3.83
2017-08-22T07:23:00.991Z,3.73
2017-08-22T07:25:27.697Z,3.30
2017-08-22T07:27:54.452Z,3.70
2017-08-22T07:30:21.098Z,3.33
2017-08-22T07:32:47.747Z,3.50
2017-08-22T07:35:14.436Z,3.70
2017-08-22T07:37:41.103Z,3.90
2017-08-22T07:40:07.793Z,3.57
2017-08-22T07:42:34.456Z,3.40
2017-08-22T07:45:01.182Z,3.40
2017-08-22T07:47:27.817Z,3.27
2017-08-22T07:49:54.467Z,2.77
2017-08-22T07:52:21.156Z,2.90
2017-08-22T07:54:47.792Z,3.27
2017-08-22T07:57:14.447Z,3.00
2017-08-22T07:59:41.116Z,2.87
2017-08-22T08:02:07.812Z,3.03
2017-08-22T08:04:34.495Z,2.83
2017-08-22T08:07:01.179Z,3.03
2017-08-22T08:09:27.921Z,3.33
2017-08-22T08:11:54.605Z,3.00
2017-08-22T08:14:21.294Z,3.23
2017-08-22T08:16:47.980Z,2.90
2017-08-22T08:19:14.622Z,3.13
2017-08-22T08:21:41.260Z,3.10
2017-08-22T08:24:07.926Z,2.60
2017-08-22T08:26:34.630Z,2.60
2017-08-22T08:29:01.307Z,2.80
2017-08-22T08:31:27.964Z,2.63
2017-08-22T08:33:54.659Z,2.80
2017-08-22T08:36:21.372Z,3.27
2017-08-22T08:38:48.012Z,2.40
2017-08-22T08:41:14.642Z,3.53
2017-08-22T08:43:41.436Z,2.50
2017-08-22T08:46:08.114Z,3.33
2017-08-22T08:48:34.747Z,2.53
2017-08-22T08:51:01.420Z,3.00
2017-08-22T08:53:28.068Z,3.00
2017-08-22T08:55:54.864Z,3.03
2017-08-22T08:58:21.602Z,2.83
2017-08-22T09:00:48.234Z,2.13
2017-08-22T09:03:14.907Z,3.67
2017-08-22T09:05:41.540Z,2.57
2017-08-22T09:08:08.358Z,2.63
2017-08-22T09:10:34.990Z,2.87
2017-08-22T09:13:01.622Z,2.67
2017-08-22T09:15:28.296Z,2.27
2017-08-22T09:17:54.932Z,2.97
2017-08-22T09:20:21.632Z,2.87
2017-08-22T09:22:48.280Z,2.23
2017-08-22T09:25:14.928Z,2.20
2017-08-22T09:27:41.613Z,2.90
2017-08-22T09:30:08.248Z,2.93
2017-08-22T09:32:34.951Z,2.60
2017-08-22T09:35:01.643Z,3.10
2017-08-22T09:37:28.329Z,2.60
2017-08-22T09:39:54.964Z,2.97
2017-08-22T09:42:21.605Z,2.60
2017-08-22T09:44:48.284Z,2.10
2017-08-22T09:47:14.956Z,2.00
2017-08-22T09:49:41.716Z,3.30
2017-08-22T09:52:08.436Z,2.47
2017-08-22T09:54:35.115Z,2.87
2017-08-22T09:57:01.812Z,2.70
2017-08-22T09:59:28.449Z,2.57
2017-08-22T10:01:55.212Z,2.50
2017-08-22T10:04:21.883Z,2.40
2017-08-22T10:06:48.559Z,2.40
2017-08-22T10:09:15.206Z,2.90
2017-08-22T10:11:41.889Z,2.50
2017-08-22T10:14:08.549Z,2.20
2017-08-22T10:16:35.233Z,2.70
2017-08-22T10:19:01.885Z,2.80
2017-08-22T10:21:28.623Z,2.60
2017-08-22T10:23:55.300Z,2.20
2017-08-22T10:26:21.940Z,2.60
2017-08-22T10:28:48.595Z,2.13
2017-08-22T10:31:16.185Z,2.33
2017-08-22T10:33:42.870Z,2.17
2017-08-22T10:36:09.540Z,2.20
2017-08-22T10:38:36.484Z,2.53
2017-08-22T10:41:03.168Z,2.37
2017-08-22T10:43:29.847Z,2.27
2017-08-22T10:45:56.533Z,2.60
2017-08-22T10:48:23.279Z,2.40
2017-08-22T10:50:49.939Z,2.20
2017-08-22T10:53:16.629Z,2.03
2017-08-22T10:55:43.271Z,2.10
2017-08-22T10:58:09.915Z,2.50
2017-08-22T11:00:37.306Z,2.20
2017-08-22T11:03:03.960Z,2.40
2017-08-22T11:05:30.656Z,2.40
2017-08-22T11:07:57.349Z,2.00
2017-08-22T11:10:23.987Z,2.10
2017-08-22T11:12:50.673Z,2.30
2017-08-22T11:15:17.423Z,2.60
2017-08-22T11:17:44.157Z,2.20
2017-08-22T11:20:10.801Z,2.43
2017-08-22T11:22:37.444Z,2.60
2017-08-22T11:25:04.124Z,2.17
2017-08-22T11:27:30.765Z,2.60
2017-08-22T11:29:57.432Z,2.57
2017-08-22T11:32:24.125Z,2.40
2017-08-22T11:34:50.804Z,2.43
2017-08-22T11:37:17.475Z,2.03
2017-08-22T11:39:44.133Z,2.33
2017-08-22T11:42:10.836Z,1.77
2017-08-22T11:44:37.488Z,2.03
2017-08-22T11:47:04.123Z,2.10
2017-08-22T11:49:30.786Z,2.20
2017-08-22T11:51:57.419Z,2.27
2017-08-22T11:54:24.089Z,2.30
2017-08-22T11:56:50.725Z,1.80
2017-08-22T11:59:17.423Z,2.27
2017-08-22T12:01:44.112Z,2.07
2017-08-22T12:04:10.766Z,2.20
2017-08-22T12:06:37.400Z,2.30
2017-08-22T12:09:04.117Z,2.10
2017-08-22T12:11:30.925Z,1.90
2017-08-22T12:13:57.631Z,1.93
2017-08-22T12:16:24.260Z,2.10
2017-08-22T12:18:50.899Z,2.10
2017-08-22T12:21:17.588Z,2.10
2017-08-22T12:23:44.317Z,2.10
2017-08-22T12:26:10.963Z,2.07
2017-08-22T12:28:37.652Z,1.87
2017-08-22T12:31:04.291Z,1.90
2017-08-22T12:33:30.961Z,2.00
2017-08-22T12:35:57.599Z,1.70
2017-08-22T12:38:24.268Z,1.93
2017-08-22T12:40:50.912Z,2.00
2017-08-22T12:43:17.671Z,2.20
2017-08-22T12:45:44.312Z,1.67
2017-08-22T12:48:10.949Z,2.40
2017-08-22T12:50:37.628Z,2.10
2017-08-22T12:53:04.258Z,1.90
2017-08-22T12:55:30.946Z,1.80
2017-08-22T12:57:57.588Z,1.80
2017-08-22T13:00:24.234Z,2.37
2017-08-22T13:02:50.911Z,2.30
2017-08-22T13:05:17.631Z,1.97
2017-08-22T13:07:44.280Z,1.87
2017-08-22T13:10:10.951Z,2.20
2017-08-22T13:12:37.633Z,1.87
2017-08-22T13:15:04.281Z,2.40
2017-08-22T13:17:31.010Z,2.13
2017-08-22T13:19:57.648Z,2.10
2017-08-22T13:22:24.338Z,1.90
2017-08-22T13:24:51.037Z,2.10
2017-08-22T13:27:17.670Z,2.23
2017-08-22T13:29:44.355Z,2.23
2017-08-22T13:32:10.989Z,2.00
2017-08-22T13:34:37.673Z,2.00
2017-08-22T13:37:04.370Z,1.77
2017-08-22T13:39:31.006Z,2.20
2017-08-22T13:41:57.748Z,2.30
2017-08-22T13:44:24.420Z,2.20
2017-08-22T13:46:51.101Z,2.37
2017-08-22T13:49:17.754Z,2.00
2017-08-22T13:51:44.459Z,2.13
2017-08-22T13:54:11.105Z,2.07
2017-08-22T13:56:37.761Z,2.57
2017-08-22T13:59:04.441Z,2.27
2017-08-22T14:01:31.078Z,2.40
2017-08-22T14:03:57.782Z,2.00
2017-08-22T14:06:24.428Z,2.10
2017-08-22T14:08:51.099Z,2.27
2017-08-22T14:11:17.771Z,2.47
2017-08-22T14:13:44.450Z,2.30
2017-08-22T14:16:11.156Z,2.80
2017-08-22T14:18:37.828Z,2.40
2017-08-22T14:21:04.477Z,2.20
2017-08-22T14:23:31.169Z,2.20
2017-08-22T14:25:57.828Z,2.60
2017-08-22T14:28:24.607Z,2.00
2017-08-22T14:30:51.282Z,2.67
2017-08-22T14:33:18.079Z,1.90
2017-08-22T14:35:44.865Z,2.40
2017-08-22T14:38:11.644Z,2.27
2017-08-22T14:40:38.384Z,2.57
2017-08-22T14:43:05.050Z,2.10
2017-08-22T14:45:31.757Z,2.70
2017-08-22T14:47:58.409Z,2.70
2017-08-22T14:50:25.182Z,2.23
2017-08-22T14:52:51.820Z,1.93
2017-08-22T14:55:18.499Z,2.10
2017-08-22T14:57:45.276Z,2.43
2017-08-22T15:00:12.008Z,2.13
2017-08-22T15:02:38.728Z,2.40
2017-08-22T15:05:05.463Z,1.77
2017-08-22T15:07:32.122Z,2.20
2017-08-22T15:09:58.817Z,2.40
2017-08-22T15:12:25.553Z,2.13
2017-08-22T15:14:52.247Z,2.17
2017-08-22T15:17:18.943Z,2.30
2017-08-22T15:19:45.588Z,2.60
2017-08-22T15:22:12.359Z,2.33
2017-08-22T15:24:39.026Z,2.30
2017-08-22T15:27:05.880Z,2.23
2017-08-22T15:29:32.582Z,1.93
2017-08-22T15:31:59.349Z,2.50
2017-08-22T15:34:26.002Z,2.30
2017-08-22T15:36:52.686Z,2.20
2017-08-22T15:39:19.443Z,2.30
2017-08-22T15:41:46.152Z,1.83
2017-08-22T15:44:12.781Z,2.10
2017-08-22T15:46:39.562Z,2.23
2017-08-22T15:49:06.244Z,2.40
2017-08-22T15:51:32.918Z,2.00
2017-08-22T15:53:59.546Z,1.80
2017-08-22T15:56:26.219Z,2.27
2017-08-22T15:58:52.880Z,2.50
2017-08-22T16:01:19.563Z,3.57
2017-08-22T16:03:46.211Z,2.07
2017-08-22T16:06:12.890Z,2.30
2017-08-22T16:08:39.563Z,2.10
2017-08-22T16:11:06.225Z,2.00
2017-08-22T16:13:32.908Z,2.43
2017-08-22T16:15:59.553Z,2.30
2017-08-22T16:18:26.236Z,2.17
2017-08-22T16:21:25.692Z,2.17
2017-08-22T16:23:52.335Z,2.20
2017-08-22T16:26:19.011Z,2.90
2017-08-22T16:28:45.648Z,2.20
2017-08-22T16:31:12.429Z,2.10
2017-08-22T16:33:39.054Z,2.20
2017-08-22T16:36:05.777Z,2.60
2017-08-22T16:38:32.425Z,2.20
2017-08-22T16:40:59.112Z,2.13
2017-08-22T16:43:25.819Z,2.20
2017-08-22T16:45:52.466Z,2.30
2017-08-22T16:48:19.122Z,2.50
2017-08-22T16:50:45.792Z,2.33
2017-08-22T16:53:13.075Z,2.20
2017-08-22T16:55:39.762Z,2.80
2017-08-22T16:58:06.445Z,2.20
2017-08-22T17:00:33.132Z,2.20
2017-08-22T17:02:59.834Z,2.30
2017-08-22T17:05:26.541Z,2.40
2017-08-22T17:07:53.176Z,2.27
2017-08-22T17:10:19.811Z,2.07
2017-08-22T17:12:46.492Z,2.37
2017-08-22T17:15:13.136Z,2.07
2017-08-22T17:17:39.811Z,2.17
2017-08-22T17:20:06.457Z,2.70
2017-08-22T17:22:33.109Z,2.10
2017-08-22T17:24:59.794Z,2.77
2017-08-22T17:27:26.441Z,2.10
2017-08-22T17:29:53.173Z,2.60
2017-08-22T17:32:19.912Z,2.10
2017-08-22T17:34:46.587Z,2.00
2017-08-22T17:37:13.248Z,2.30
2017-08-22T17:39:39.935Z,2.27
2017-08-22T17:42:06.645Z,2.33
2017-08-22T17:44:33.280Z,2.23
2017-08-22T17:46:59.966Z,2.30
2017-08-22T17:49:29.094Z,2.40
2017-08-22T17:51:56.171Z,2.67
2017-08-22T17:54:22.880Z,2.27
2017-08-22T17:56:49.554Z,2.63
2017-08-22T17:59:16.206Z,2.70
2017-08-22T18:01:42.923Z,2.60
2017-08-22T18:04:09.559Z,2.60
2017-08-22T18:06:36.252Z,2.37
2017-08-22T18:09:02.892Z,2.60
2017-08-22T18:11:29.531Z,2.70
2017-08-22T18:13:56.227Z,2.37
2017-08-22T18:16:22.884Z,3.10
2017-08-22T18:18:49.528Z,3.10
2017-08-22T18:21:16.208Z,2.57
2017-08-22T18:23:42.999Z,3.00
2017-08-22T18:26:09.640Z,3.00
2017-08-22T18:28:36.349Z,2.90
2017-08-22T18:31:03.051Z,2.83
2017-08-22T18:33:29.717Z,2.93
2017-08-22T18:35:56.357Z,2.77
2017-08-22T18:38:23.134Z,3.40
2017-08-22T18:40:49.895Z,3.20
2017-08-22T18:43:16.532Z,3.23
2017-08-22T18:45:43.304Z,3.17
2017-08-22T18:48:09.930Z,3.00
2017-08-22T18:50:36.657Z,3.70
2017-08-22T18:53:03.287Z,3.27
2017-08-22T18:55:29.958Z,3.60
2017-08-22T18:57:56.668Z,3.53
2017-08-22T19:00:23.290Z,3.20
2017-08-22T19:02:49.977Z,2.83
2017-08-22T19:05:16.633Z,3.00
2017-08-22T19:07:43.282Z,3.50
2017-08-22T19:10:09.961Z,2.80
2017-08-22T19:12:36.637Z,3.20
2017-08-22T19:15:03.327Z,2.87
2017-08-22T19:17:29.985Z,3.20
2017-08-22T19:19:56.663Z,3.13
2017-08-22T19:22:23.353Z,3.40
2017-08-22T19:24:49.997Z,3.00
2017-08-22T19:27:16.669Z,3.10
2017-08-22T19:29:43.355Z,3.90
2017-08-22T19:32:10.106Z,2.80
2017-08-22T19:34:36.759Z,4.10
2017-08-22T19:37:03.508Z,3.70
2017-08-22T19:39:30.185Z,4.27
2017-08-22T19:41:56.851Z,4.20
2017-08-22T19:44:23.548Z,4.23
2017-08-22T19:46:50.195Z,3.60
2017-08-22T19:49:16.869Z,4.23
2017-08-22T19:51:43.550Z,3.97
2017-08-22T19:54:10.193Z,4.40
2017-08-22T19:56:36.836Z,4.33
2017-08-22T19:59:03.709Z,3.63
2017-08-22T20:01:30.391Z,4.30
2017-08-22T20:03:57.109Z,3.97
2017-08-22T20:06:23.808Z,3.47
2017-08-22T20:08:50.536Z,4.00
2017-08-22T20:11:17.227Z,3.90
2017-08-22T20:13:43.884Z,3.37
2017-08-22T20:16:10.577Z,3.90
2017-08-22T20:18:37.257Z,3.53
2017-08-22T20:21:04.061Z,4.87
2017-08-22T20:23:30.896Z,4.53
2017-08-22T20:25:57.532Z,3.90
2017-08-22T20:28:24.217Z,4.23
2017-08-22T20:30:50.936Z,4.30
2017-08-22T20:33:17.572Z,4.00
2017-08-22T20:35:44.275Z,4.03
2017-08-22T20:38:11.062Z,4.50
2017-08-22T20:40:37.909Z,4.20
2017-08-22T20:43:04.572Z,4.90
2017-08-22T20:45:31.244Z,4.20
2017-08-22T20:47:57.964Z,4.23
2017-08-22T20:50:24.677Z,4.30
2017-08-22T20:52:51.402Z,4.27
2017-08-22T20:55:18.098Z,4.90
2017-08-22T20:57:44.801Z,4.50
2017-08-22T21:00:11.488Z,4.40
2017-08-22T21:02:38.174Z,4.30
2017-08-22T21:05:05.310Z,4.10
2017-08-22T21:07:32.015Z,4.70
2017-08-22T21:09:58.663Z,4.27
2017-08-22T21:12:25.322Z,3.93
2017-08-22T21:14:52.036Z,4.30
2017-08-22T21:17:18.736Z,4.43
2017-08-22T21:19:45.439Z,3.90
2017-08-22T21:22:12.098Z,4.00
2017-08-22T21:24:38.814Z,4.33
2017-08-22T21:27:05.558Z,4.33
2017-08-22T21:29:32.276Z,4.67
2017-08-22T21:31:58.937Z,4.10
2017-08-22T21:34:25.641Z,4.50
2017-08-22T21:36:52.360Z,4.03
2017-08-22T21:39:19.104Z,4.17
2017-08-22T21:41:45.756Z,4.33
2017-08-22T21:44:12.435Z,4.80
2017-08-22T21:46:39.139Z,4.07
2017-08-22T21:49:05.779Z,4.10
2017-08-22T21:51:32.452Z,4.50
2017-08-22T21:53:59.155Z,3.53
2017-08-22T21:56:25.829Z,4.27
2017-08-22T21:58:52.516Z,4.10
2017-08-22T22:01:19.198Z,4.77
2017-08-22T22:03:45.842Z,4.27
2017-08-22T22:06:12.536Z,4.63
2017-08-22T22:08:39.192Z,4.10
2017-08-22T22:11:05.863Z,4.00
2017-08-22T22:13:32.599Z,4.40
2017-08-22T22:15:59.225Z,4.30
2017-08-22T22:18:25.921Z,4.30
2017-08-22T22:20:52.568Z,4.00
2017-08-22T22:23:19.356Z,4.57
2017-08-22T22:25:45.988Z,3.77
2017-08-22T22:28:12.623Z,4.00
2017-08-22T22:30:39.328Z,3.63
2017-08-22T22:33:05.975Z,4.10
2017-08-22T22:35:32.620Z,3.60
2017-08-22T22:37:59.313Z,3.93
2017-08-22T22:40:25.946Z,4.23
2017-08-22T22:42:52.582Z,4.00
2017-08-22T22:45:19.251Z,3.67
2017-08-22T22:47:46.767Z,3.80
2017-08-22T22:50:13.419Z,3.97
2017-08-22T22:52:40.139Z,3.67
2017-08-22T22:55:06.811Z,4.10
2017-08-22T22:57:33.458Z,3.90
2017-08-22T23:00:00.132Z,4.30
2017-08-22T23:02:26.765Z,3.70
2017-08-22T23:04:53.452Z,3.27
2017-08-22T23:07:20.137Z,4.00
2017-08-22T23:09:46.775Z,3.73
2017-08-22T23:12:13.413Z,4.00
2017-08-22T23:14:40.091Z,3.73
2017-08-22T23:17:06.723Z,4.10
2017-08-22T23:19:33.347Z,4.07
2017-08-22T23:22:00.006Z,4.10
2017-08-22T23:24:26.642Z,3.87
2017-08-22T23:26:53.278Z,3.93
2017-08-22T23:31:54.061Z,3.40
2017-08-22T23:34:20.787Z,3.60
2017-08-22T23:36:47.484Z,3.30
2017-08-22T23:39:14.120Z,3.90
2017-08-22T23:41:40.751Z,4.30
2017-08-22T23:44:07.440Z,4.10
2017-08-22T23:46:34.115Z,3.47
2017-08-22T23:49:00.756Z,3.63
2017-08-22T23:51:27.401Z,4.37
2017-08-22T23:53:54.176Z,3.70
2017-08-22T23:56:20.816Z,4.10
2017-08-22T23:58:47.505Z,3.80
